sensor_id;sensor_type;location;lat;lon;timestamp;P1;durP1;ratioP1;P2;durP2;ratioP2
66521;SDS011;53349;53.538;8.584;2023-03-20T00:02:22;16.98;;;5.70;;
66521;SDS011;53349;53.538;8.584;2023-03-20T00:04:48;15.25;;;5.13;;
66521;SDS011;53349;53.538;8.584;2023-03-20T00:07:14;11.90;;;4.82;;
66521;SDS011;53349;53.538;8.584;2023-03-20T00:09:40;14.00;;;4.82;;
66521;SDS011;53349;53.538;8.584;2023-03-20T00:12:06;12.13;;;4.77;;
66521;SDS011;53349;53.538;8.584;2023-03-20T00:14:37;14.85;;;4.78;;
66521;SDS011;53349;53.538;8.584;2023-03-20T00:17:07;11.95;;;4.15;;
66521;SDS011;53349;53.538;8.584;2023-03-20T00:19:35;11.85;;;4.50;;
66521;SDS011;53349;53.538;8.584;2023-03-20T00:22:01;10.37;;;3.97;;
66521;SDS011;53349;53.538;8.584;2023-03-20T00:24:26;12.10;;;4.03;;
66521;SDS011;53349;53.538;8.584;2023-03-20T00:26:51;10.00;;;3.80;;
66521;SDS011;53349;53.538;8.584;2023-03-20T00:29:22;8.55;;;3.28;;
66521;SDS011;53349;53.538;8.584;2023-03-20T00:32:00;11.00;;;3.97;;
66521;SDS011;53349;53.538;8.584;2023-03-20T00:34:54;11.05;;;3.65;;
66521;SDS011;53349;53.538;8.584;2023-03-20T00:37:20;10.60;;;3.90;;
66521;SDS011;53349;53.538;8.584;2023-03-20T00:39:46;8.88;;;3.63;;
66521;SDS011;53349;53.538;8.584;2023-03-20T00:42:15;8.67;;;3.57;;
66521;SDS011;53349;53.538;8.584;2023-03-20T00:44:51;9.93;;;3.63;;
66521;SDS011;53349;53.538;8.584;2023-03-20T00:47:20;12.52;;;4.43;;
66521;SDS011;53349;53.538;8.584;2023-03-20T00:49:47;11.93;;;4.47;;
66521;SDS011;53349;53.538;8.584;2023-03-20T00:52:16;11.20;;;4.30;;
66521;SDS011;53349;53.538;8.584;2023-03-20T00:54:43;11.48;;;4.70;;
66521;SDS011;53349;53.538;8.584;2023-03-20T00:57:13;8.97;;;3.47;;
66521;SDS011;53349;53.538;8.584;2023-03-20T01:02:25;11.05;;;4.28;;
66521;SDS011;53349;53.538;8.584;2023-03-20T01:04:55;12.13;;;4.35;;
66521;SDS011;53349;53.538;8.584;2023-03-20T01:07:21;12.52;;;4.22;;
66521;SDS011;53349;53.538;8.584;2023-03-20T01:09:48;10.37;;;4.10;;
66521;SDS011;53349;53.538;8.584;2023-03-20T01:12:14;12.32;;;3.97;;
66521;SDS011;53349;53.538;8.584;2023-03-20T01:14:45;9.57;;;3.42;;
66521;SDS011;53349;53.538;8.584;2023-03-20T01:17:19;10.00;;;3.33;;
66521;SDS011;53349;53.538;8.584;2023-03-20T01:19:45;9.85;;;3.67;;
66521;SDS011;53349;53.538;8.584;2023-03-20T01:22:11;14.00;;;4.00;;
66521;SDS011;53349;53.538;8.584;2023-03-20T01:24:36;10.00;;;4.00;;
66521;SDS011;53349;53.538;8.584;2023-03-20T01:27:01;10.07;;;3.80;;
66521;SDS011;53349;53.538;8.584;2023-03-20T01:29:27;10.35;;;3.70;;
66521;SDS011;53349;53.538;8.584;2023-03-20T01:31:53;9.98;;;3.85;;
66521;SDS011;53349;53.538;8.584;2023-03-20T01:34:20;11.55;;;4.07;;
66521;SDS011;53349;53.538;8.584;2023-03-20T01:36:53;10.73;;;3.80;;
66521;SDS011;53349;53.538;8.584;2023-03-20T01:39:20;10.00;;;3.40;;
66521;SDS011;53349;53.538;8.584;2023-03-20T01:41:47;11.43;;;3.85;;
66521;SDS011;53349;53.538;8.584;2023-03-20T01:44:23;9.80;;;3.88;;
66521;SDS011;53349;53.538;8.584;2023-03-20T01:46:53;10.35;;;3.75;;
66521;SDS011;53349;53.538;8.584;2023-03-20T01:51:49;11.02;;;3.35;;
66521;SDS011;53349;53.538;8.584;2023-03-20T01:54:23;11.10;;;3.75;;
66521;SDS011;53349;53.538;8.584;2023-03-20T01:56:55;10.02;;;3.75;;
66521;SDS011;53349;53.538;8.584;2023-03-20T01:59:25;9.13;;;3.17;;
66521;SDS011;53349;53.538;8.584;2023-03-20T02:01:56;8.82;;;3.33;;
66521;SDS011;53349;53.538;8.584;2023-03-20T02:04:23;8.45;;;3.25;;
66521;SDS011;53349;53.538;8.584;2023-03-20T02:06:54;6.72;;;2.50;;
66521;SDS011;53349;53.538;8.584;2023-03-20T02:09:20;6.20;;;2.40;;
66521;SDS011;53349;53.538;8.584;2023-03-20T02:11:47;5.25;;;2.50;;
66521;SDS011;53349;53.538;8.584;2023-03-20T02:14:13;6.50;;;2.15;;
66521;SDS011;53349;53.538;8.584;2023-03-20T02:16:39;5.57;;;1.80;;
66521;SDS011;53349;53.538;8.584;2023-03-20T02:19:05;5.53;;;1.70;;
66521;SDS011;53349;53.538;8.584;2023-03-20T02:21:42;5.85;;;2.08;;
66521;SDS011;53349;53.538;8.584;2023-03-20T02:27:32;5.40;;;2.00;;
66521;SDS011;53349;53.538;8.584;2023-03-20T02:45:16;5.65;;;2.08;;
66521;SDS011;53349;53.538;8.584;2023-03-20T02:50:45;5.97;;;1.90;;
66521;SDS011;53349;53.538;8.584;2023-03-20T02:56:32;6.60;;;2.17;;
66521;SDS011;53349;53.538;8.584;2023-03-20T03:02:07;7.85;;;2.33;;
66521;SDS011;53349;53.538;8.584;2023-03-20T03:04:40;6.80;;;2.35;;
66521;SDS011;53349;53.538;8.584;2023-03-20T03:07:31;6.80;;;2.15;;
66521;SDS011;53349;53.538;8.584;2023-03-20T03:10:00;7.07;;;2.70;;
66521;SDS011;53349;53.538;8.584;2023-03-20T03:12:32;7.82;;;2.40;;
66521;SDS011;53349;53.538;8.584;2023-03-20T03:15:04;7.78;;;2.65;;
66521;SDS011;53349;53.538;8.584;2023-03-20T03:17:34;8.13;;;2.60;;
66521;SDS011;53349;53.538;8.584;2023-03-20T03:20:03;8.20;;;2.63;;
66521;SDS011;53349;53.538;8.584;2023-03-20T03:22:37;7.10;;;2.37;;
66521;SDS011;53349;53.538;8.584;2023-03-20T03:25:05;6.38;;;2.50;;
66521;SDS011;53349;53.538;8.584;2023-03-20T03:27:38;9.73;;;3.03;;
66521;SDS011;53349;53.538;8.584;2023-03-20T03:30:11;9.38;;;2.97;;
66521;SDS011;53349;53.538;8.584;2023-03-20T03:32:48;9.75;;;3.25;;
66521;SDS011;53349;53.538;8.584;2023-03-20T03:35:26;9.20;;;3.03;;
66521;SDS011;53349;53.538;8.584;2023-03-20T03:38:25;8.07;;;3.60;;
66521;SDS011;53349;53.538;8.584;2023-03-20T03:40:55;7.88;;;3.30;;
66521;SDS011;53349;53.538;8.584;2023-03-20T03:43:33;7.30;;;3.50;;
66521;SDS011;53349;53.538;8.584;2023-03-20T03:46:08;8.80;;;3.40;;
66521;SDS011;53349;53.538;8.584;2023-03-20T03:48:43;9.68;;;3.25;;
66521;SDS011;53349;53.538;8.584;2023-03-20T03:51:16;8.45;;;3.45;;
66521;SDS011;53349;53.538;8.584;2023-03-20T03:53:49;10.52;;;4.13;;
66521;SDS011;53349;53.538;8.584;2023-03-20T03:56:19;9.73;;;4.15;;
66521;SDS011;53349;53.538;8.584;2023-03-20T03:58:51;12.05;;;4.65;;
66521;SDS011;53349;53.538;8.584;2023-03-20T04:01:22;16.67;;;4.80;;
66521;SDS011;53349;53.538;8.584;2023-03-20T04:03:58;10.23;;;4.00;;
66521;SDS011;53349;53.538;8.584;2023-03-20T04:06:25;11.80;;;3.83;;
66521;SDS011;53349;53.538;8.584;2023-03-20T04:08:52;10.25;;;3.55;;
66521;SDS011;53349;53.538;8.584;2023-03-20T04:11:19;8.77;;;3.20;;
66521;SDS011;53349;53.538;8.584;2023-03-20T04:13:49;11.02;;;3.50;;
66521;SDS011;53349;53.538;8.584;2023-03-20T04:16:16;9.00;;;3.40;;
66521;SDS011;53349;53.538;8.584;2023-03-20T04:18:42;11.35;;;4.60;;
66521;SDS011;53349;53.538;8.584;2023-03-20T04:21:08;11.50;;;3.58;;
66521;SDS011;53349;53.538;8.584;2023-03-20T04:23:34;9.90;;;3.77;;
66521;SDS011;53349;53.538;8.584;2023-03-20T04:26:01;12.93;;;3.70;;
66521;SDS011;53349;53.538;8.584;2023-03-20T04:28:27;12.13;;;4.32;;
66521;SDS011;53349;53.538;8.584;2023-03-20T04:30:54;10.10;;;3.95;;
66521;SDS011;53349;53.538;8.584;2023-03-20T04:33:20;10.13;;;3.50;;
66521;SDS011;53349;53.538;8.584;2023-03-20T04:35:47;10.35;;;4.05;;
66521;SDS011;53349;53.538;8.584;2023-03-20T04:38:12;8.07;;;3.83;;
66521;SDS011;53349;53.538;8.584;2023-03-20T04:40:39;8.85;;;3.45;;
66521;SDS011;53349;53.538;8.584;2023-03-20T04:43:04;10.02;;;3.78;;
66521;SDS011;53349;53.538;8.584;2023-03-20T04:45:31;10.50;;;4.00;;
66521;SDS011;53349;53.538;8.584;2023-03-20T04:48:00;12.55;;;4.68;;
66521;SDS011;53349;53.538;8.584;2023-03-20T04:50:26;10.97;;;3.73;;
66521;SDS011;53349;53.538;8.584;2023-03-20T04:52:53;9.68;;;3.78;;
66521;SDS011;53349;53.538;8.584;2023-03-20T04:55:19;9.57;;;3.90;;
66521;SDS011;53349;53.538;8.584;2023-03-20T04:57:47;9.57;;;3.78;;
66521;SDS011;53349;53.538;8.584;2023-03-20T05:00:16;9.80;;;3.90;;
66521;SDS011;53349;53.538;8.584;2023-03-20T05:02:42;10.00;;;3.60;;
66521;SDS011;53349;53.538;8.584;2023-03-20T05:05:20;11.55;;;3.97;;
66521;SDS011;53349;53.538;8.584;2023-03-20T05:07:45;8.23;;;3.33;;
66521;SDS011;53349;53.538;8.584;2023-03-20T05:10:10;10.57;;;3.77;;
66521;SDS011;53349;53.538;8.584;2023-03-20T05:12:36;10.67;;;3.40;;
66521;SDS011;53349;53.538;8.584;2023-03-20T05:15:01;7.83;;;3.20;;
66521;SDS011;53349;53.538;8.584;2023-03-20T05:17:26;7.23;;;2.87;;
66521;SDS011;53349;53.538;8.584;2023-03-20T05:19:53;8.43;;;3.25;;
66521;SDS011;53349;53.538;8.584;2023-03-20T05:22:18;8.60;;;3.23;;
66521;SDS011;53349;53.538;8.584;2023-03-20T05:24:44;8.40;;;3.57;;
66521;SDS011;53349;53.538;8.584;2023-03-20T05:27:10;8.17;;;3.33;;
66521;SDS011;53349;53.538;8.584;2023-03-20T05:29:36;8.57;;;3.40;;
66521;SDS011;53349;53.538;8.584;2023-03-20T05:32:04;7.40;;;3.57;;
66521;SDS011;53349;53.538;8.584;2023-03-20T05:34:29;7.38;;;3.13;;
66521;SDS011;53349;53.538;8.584;2023-03-20T05:36:55;8.80;;;3.93;;
66521;SDS011;53349;53.538;8.584;2023-03-20T05:39:23;9.32;;;3.60;;
66521;SDS011;53349;53.538;8.584;2023-03-20T05:41:48;9.17;;;3.87;;
66521;SDS011;53349;53.538;8.584;2023-03-20T05:44:13;9.20;;;3.60;;
66521;SDS011;53349;53.538;8.584;2023-03-20T05:46:39;9.27;;;3.55;;
66521;SDS011;53349;53.538;8.584;2023-03-20T05:49:04;9.10;;;3.65;;
66521;SDS011;53349;53.538;8.584;2023-03-20T05:51:29;7.57;;;3.57;;
66521;SDS011;53349;53.538;8.584;2023-03-20T05:53:56;11.40;;;4.40;;
66521;SDS011;53349;53.538;8.584;2023-03-20T05:56:27;10.35;;;3.55;;
66521;SDS011;53349;53.538;8.584;2023-03-20T05:58:57;7.73;;;3.20;;
66521;SDS011;53349;53.538;8.584;2023-03-20T06:01:22;10.47;;;4.13;;
66521;SDS011;53349;53.538;8.584;2023-03-20T06:03:47;9.93;;;3.92;;
66521;SDS011;53349;53.538;8.584;2023-03-20T06:06:13;9.00;;;3.60;;
66521;SDS011;53349;53.538;8.584;2023-03-20T06:08:39;9.27;;;3.38;;
66521;SDS011;53349;53.538;8.584;2023-03-20T06:11:04;8.15;;;3.70;;
66521;SDS011;53349;53.538;8.584;2023-03-20T06:13:31;8.43;;;3.53;;
66521;SDS011;53349;53.538;8.584;2023-03-20T06:15:57;9.98;;;3.45;;
66521;SDS011;53349;53.538;8.584;2023-03-20T06:18:22;11.27;;;3.97;;
66521;SDS011;53349;53.538;8.584;2023-03-20T06:20:51;11.80;;;4.40;;
66521;SDS011;53349;53.538;8.584;2023-03-20T06:23:18;11.88;;;3.90;;
66521;SDS011;53349;53.538;8.584;2023-03-20T06:25:43;10.37;;;4.07;;
66521;SDS011;53349;53.538;8.584;2023-03-20T06:28:09;9.43;;;3.63;;
66521;SDS011;53349;53.538;8.584;2023-03-20T06:30:37;10.50;;;4.00;;
66521;SDS011;53349;53.538;8.584;2023-03-20T06:33:06;9.48;;;3.45;;
66521;SDS011;53349;53.538;8.584;2023-03-20T06:35:31;9.65;;;4.20;;
66521;SDS011;53349;53.538;8.584;2023-03-20T06:37:57;10.63;;;4.43;;
66521;SDS011;53349;53.538;8.584;2023-03-20T06:40:23;11.50;;;4.60;;
66521;SDS011;53349;53.538;8.584;2023-03-20T06:42:49;10.32;;;3.92;;
66521;SDS011;53349;53.538;8.584;2023-03-20T06:45:15;10.93;;;3.97;;
66521;SDS011;53349;53.538;8.584;2023-03-20T06:47:41;9.43;;;4.00;;
66521;SDS011;53349;53.538;8.584;2023-03-20T06:50:10;11.60;;;4.07;;
66521;SDS011;53349;53.538;8.584;2023-03-20T06:52:38;11.73;;;4.00;;
66521;SDS011;53349;53.538;8.584;2023-03-20T06:55:10;14.15;;;4.25;;
66521;SDS011;53349;53.538;8.584;2023-03-20T06:57:37;10.52;;;4.13;;
66521;SDS011;53349;53.538;8.584;2023-03-20T07:00:03;11.55;;;3.53;;
66521;SDS011;53349;53.538;8.584;2023-03-20T07:02:29;13.20;;;4.10;;
66521;SDS011;53349;53.538;8.584;2023-03-20T07:04:55;10.48;;;4.28;;
66521;SDS011;53349;53.538;8.584;2023-03-20T07:07:25;10.40;;;4.05;;
66521;SDS011;53349;53.538;8.584;2023-03-20T07:09:51;10.95;;;4.15;;
66521;SDS011;53349;53.538;8.584;2023-03-20T07:12:17;10.47;;;4.10;;
66521;SDS011;53349;53.538;8.584;2023-03-20T07:14:48;10.95;;;4.53;;
66521;SDS011;53349;53.538;8.584;2023-03-20T07:17:14;10.65;;;4.25;;
66521;SDS011;53349;53.538;8.584;2023-03-20T07:19:40;12.88;;;4.30;;
66521;SDS011;53349;53.538;8.584;2023-03-20T07:22:07;10.00;;;3.93;;
66521;SDS011;53349;53.538;8.584;2023-03-20T07:24:40;10.60;;;3.97;;
66521;SDS011;53349;53.538;8.584;2023-03-20T07:27:06;12.07;;;4.30;;
66521;SDS011;53349;53.538;8.584;2023-03-20T07:29:32;12.07;;;4.13;;
66521;SDS011;53349;53.538;8.584;2023-03-20T07:31:57;11.67;;;3.83;;
66521;SDS011;53349;53.538;8.584;2023-03-20T07:34:23;12.73;;;4.57;;
66521;SDS011;53349;53.538;8.584;2023-03-20T07:36:48;13.83;;;4.43;;
66521;SDS011;53349;53.538;8.584;2023-03-20T07:39:14;10.25;;;4.25;;
66521;SDS011;53349;53.538;8.584;2023-03-20T07:41:40;11.45;;;4.65;;
66521;SDS011;53349;53.538;8.584;2023-03-20T07:44:06;13.80;;;4.50;;
66521;SDS011;53349;53.538;8.584;2023-03-20T07:46:31;12.30;;;4.93;;
66521;SDS011;53349;53.538;8.584;2023-03-20T07:48:58;12.35;;;4.60;;
66521;SDS011;53349;53.538;8.584;2023-03-20T07:51:27;14.30;;;5.50;;
66521;SDS011;53349;53.538;8.584;2023-03-20T07:53:53;13.23;;;4.80;;
66521;SDS011;53349;53.538;8.584;2023-03-20T07:56:18;15.10;;;5.37;;
66521;SDS011;53349;53.538;8.584;2023-03-20T07:58:43;13.65;;;4.70;;
66521;SDS011;53349;53.538;8.584;2023-03-20T08:01:09;14.07;;;5.50;;
66521;SDS011;53349;53.538;8.584;2023-03-20T08:03:34;12.77;;;4.73;;
66521;SDS011;53349;53.538;8.584;2023-03-20T08:05:59;12.93;;;5.30;;
66521;SDS011;53349;53.538;8.584;2023-03-20T08:08:26;13.00;;;5.25;;
66521;SDS011;53349;53.538;8.584;2023-03-20T08:10:51;13.93;;;4.97;;
66521;SDS011;53349;53.538;8.584;2023-03-20T08:13:16;14.00;;;4.93;;
66521;SDS011;53349;53.538;8.584;2023-03-20T08:15:43;12.17;;;5.20;;
66521;SDS011;53349;53.538;8.584;2023-03-20T08:18:11;15.73;;;5.68;;
66521;SDS011;53349;53.538;8.584;2023-03-20T08:20:36;13.27;;;5.20;;
66521;SDS011;53349;53.538;8.584;2023-03-20T08:23:03;13.55;;;5.00;;
66521;SDS011;53349;53.538;8.584;2023-03-20T08:25:28;14.13;;;5.23;;
66521;SDS011;53349;53.538;8.584;2023-03-20T08:27:55;12.33;;;5.27;;
66521;SDS011;53349;53.538;8.584;2023-03-20T08:30:20;13.18;;;5.40;;
66521;SDS011;53349;53.538;8.584;2023-03-20T08:32:45;13.67;;;4.97;;
66521;SDS011;53349;53.538;8.584;2023-03-20T08:35:11;14.95;;;5.05;;
66521;SDS011;53349;53.538;8.584;2023-03-20T08:37:36;13.60;;;5.33;;
66521;SDS011;53349;53.538;8.584;2023-03-20T08:40:02;13.37;;;5.17;;
66521;SDS011;53349;53.538;8.584;2023-03-20T08:42:28;13.20;;;5.30;;
66521;SDS011;53349;53.538;8.584;2023-03-20T08:44:55;12.68;;;4.80;;
66521;SDS011;53349;53.538;8.584;2023-03-20T08:47:23;12.88;;;5.00;;
66521;SDS011;53349;53.538;8.584;2023-03-20T08:49:50;13.93;;;4.95;;
66521;SDS011;53349;53.538;8.584;2023-03-20T08:52:17;12.77;;;5.15;;
66521;SDS011;53349;53.538;8.584;2023-03-20T08:54:43;17.27;;;5.75;;
66521;SDS011;53349;53.538;8.584;2023-03-20T08:57:08;14.10;;;5.20;;
66521;SDS011;53349;53.538;8.584;2023-03-20T08:59:34;13.23;;;5.30;;
66521;SDS011;53349;53.538;8.584;2023-03-20T09:02:02;12.25;;;5.28;;
66521;SDS011;53349;53.538;8.584;2023-03-20T09:04:27;10.87;;;4.70;;
66521;SDS011;53349;53.538;8.584;2023-03-20T09:06:52;13.55;;;5.13;;
66521;SDS011;53349;53.538;8.584;2023-03-20T09:09:19;15.63;;;5.22;;
66521;SDS011;53349;53.538;8.584;2023-03-20T09:11:44;13.87;;;5.17;;
66521;SDS011;53349;53.538;8.584;2023-03-20T09:14:09;12.90;;;4.70;;
66521;SDS011;53349;53.538;8.584;2023-03-20T09:16:35;13.20;;;5.20;;
66521;SDS011;53349;53.538;8.584;2023-03-20T09:19:00;10.87;;;4.90;;
66521;SDS011;53349;53.538;8.584;2023-03-20T09:21:26;11.63;;;4.63;;
66521;SDS011;53349;53.538;8.584;2023-03-20T09:23:51;12.40;;;5.17;;
66521;SDS011;53349;53.538;8.584;2023-03-20T09:26:19;14.10;;;4.53;;
66521;SDS011;53349;53.538;8.584;2023-03-20T09:28:44;11.85;;;5.00;;
66521;SDS011;53349;53.538;8.584;2023-03-20T09:31:12;8.65;;;4.05;;
66521;SDS011;53349;53.538;8.584;2023-03-20T09:33:37;10.43;;;4.57;;
66521;SDS011;53349;53.538;8.584;2023-03-20T09:36:04;11.23;;;4.50;;
66521;SDS011;53349;53.538;8.584;2023-03-20T09:38:29;10.18;;;4.32;;
66521;SDS011;53349;53.538;8.584;2023-03-20T09:40:56;12.50;;;4.90;;
66521;SDS011;53349;53.538;8.584;2023-03-20T09:48:44;10.82;;;4.13;;
66521;SDS011;53349;53.538;8.584;2023-03-20T09:51:20;7.63;;;4.13;;
66521;SDS011;53349;53.538;8.584;2023-03-20T09:53:58;9.75;;;4.10;;
66521;SDS011;53349;53.538;8.584;2023-03-20T09:56:28;11.85;;;4.82;;
66521;SDS011;53349;53.538;8.584;2023-03-20T09:59:02;11.57;;;4.13;;
66521;SDS011;53349;53.538;8.584;2023-03-20T10:01:36;12.30;;;4.57;;
66521;SDS011;53349;53.538;8.584;2023-03-20T10:04:13;11.75;;;4.55;;
66521;SDS011;53349;53.538;8.584;2023-03-20T10:06:40;13.25;;;4.63;;
66521;SDS011;53349;53.538;8.584;2023-03-20T10:09:13;11.88;;;4.85;;
66521;SDS011;53349;53.538;8.584;2023-03-20T10:22:44;13.48;;;4.32;;
66521;SDS011;53349;53.538;8.584;2023-03-20T10:25:30;14.05;;;4.70;;
66521;SDS011;53349;53.538;8.584;2023-03-20T10:28:18;10.85;;;4.70;;
66521;SDS011;53349;53.538;8.584;2023-03-20T10:37:16;11.95;;;4.30;;
66521;SDS011;53349;53.538;8.584;2023-03-20T10:42:29;12.93;;;4.20;;
66521;SDS011;53349;53.538;8.584;2023-03-20T10:45:05;12.35;;;5.72;;
66521;SDS011;53349;53.538;8.584;2023-03-20T10:47:53;11.85;;;4.93;;
66521;SDS011;53349;53.538;8.584;2023-03-20T10:50:23;11.00;;;5.10;;
66521;SDS011;53349;53.538;8.584;2023-03-20T10:52:59;9.65;;;4.20;;
66521;SDS011;53349;53.538;8.584;2023-03-20T10:55:28;13.27;;;4.38;;
66521;SDS011;53349;53.538;8.584;2023-03-20T10:58:02;12.50;;;4.80;;
66521;SDS011;53349;53.538;8.584;2023-03-20T11:00:37;10.63;;;4.70;;
66521;SDS011;53349;53.538;8.584;2023-03-20T11:03:03;11.57;;;4.67;;
66521;SDS011;53349;53.538;8.584;2023-03-20T11:05:31;13.20;;;4.93;;
66521;SDS011;53349;53.538;8.584;2023-03-20T11:08:04;8.68;;;4.32;;
66521;SDS011;53349;53.538;8.584;2023-03-20T11:10:34;10.10;;;4.53;;
66521;SDS011;53349;53.538;8.584;2023-03-20T11:15:51;9.00;;;4.38;;
66521;SDS011;53349;53.538;8.584;2023-03-20T11:18:18;10.70;;;4.22;;
66521;SDS011;53349;53.538;8.584;2023-03-20T11:20:54;10.65;;;4.03;;
66521;SDS011;53349;53.538;8.584;2023-03-20T11:23:24;9.17;;;3.53;;
66521;SDS011;53349;53.538;8.584;2023-03-20T11:26:10;8.15;;;3.78;;
66521;SDS011;53349;53.538;8.584;2023-03-20T11:29:01;11.27;;;4.00;;
66521;SDS011;53349;53.538;8.584;2023-03-20T11:31:39;8.90;;;3.85;;
66521;SDS011;53349;53.538;8.584;2023-03-20T11:36:59;15.07;;;4.07;;
66521;SDS011;53349;53.538;8.584;2023-03-20T11:39:30;11.27;;;3.70;;
66521;SDS011;53349;53.538;8.584;2023-03-20T11:41:58;11.15;;;4.45;;
66521;SDS011;53349;53.538;8.584;2023-03-20T11:44:29;10.90;;;4.10;;
66521;SDS011;53349;53.538;8.584;2023-03-20T11:47:00;10.32;;;4.00;;
66521;SDS011;53349;53.538;8.584;2023-03-20T11:49:45;9.50;;;3.87;;
66521;SDS011;53349;53.538;8.584;2023-03-20T11:52:14;10.70;;;3.92;;
66521;SDS011;53349;53.538;8.584;2023-03-20T11:54:46;10.73;;;3.85;;
66521;SDS011;53349;53.538;8.584;2023-03-20T12:02:56;8.43;;;4.10;;
66521;SDS011;53349;53.538;8.584;2023-03-20T12:05:31;8.63;;;3.87;;
66521;SDS011;53349;53.538;8.584;2023-03-20T12:08:04;10.73;;;3.90;;
66521;SDS011;53349;53.538;8.584;2023-03-20T12:10:41;10.75;;;4.00;;
66521;SDS011;53349;53.538;8.584;2023-03-20T12:13:13;10.77;;;4.22;;
66521;SDS011;53349;53.538;8.584;2023-03-20T12:15:45;9.10;;;4.00;;
66521;SDS011;53349;53.538;8.584;2023-03-20T12:18:28;10.50;;;3.90;;
66521;SDS011;53349;53.538;8.584;2023-03-20T12:21:06;9.35;;;3.80;;
66521;SDS011;53349;53.538;8.584;2023-03-20T12:23:43;12.60;;;3.95;;
66521;SDS011;53349;53.538;8.584;2023-03-20T12:26:32;10.10;;;4.03;;
66521;SDS011;53349;53.538;8.584;2023-03-20T12:29:04;12.48;;;4.38;;
66521;SDS011;53349;53.538;8.584;2023-03-20T12:34:14;9.27;;;4.30;;
66521;SDS011;53349;53.538;8.584;2023-03-20T12:36:45;8.90;;;4.20;;
66521;SDS011;53349;53.538;8.584;2023-03-20T12:39:19;9.50;;;4.10;;
66521;SDS011;53349;53.538;8.584;2023-03-20T12:44:35;9.88;;;3.95;;
66521;SDS011;53349;53.538;8.584;2023-03-20T12:47:17;8.68;;;4.20;;
66521;SDS011;53349;53.538;8.584;2023-03-20T12:53:04;10.25;;;3.90;;
66521;SDS011;53349;53.538;8.584;2023-03-20T12:59:07;10.93;;;4.13;;
66521;SDS011;53349;53.538;8.584;2023-03-20T13:07:16;9.32;;;3.97;;
66521;SDS011;53349;53.538;8.584;2023-03-20T13:09:55;9.32;;;3.38;;
66521;SDS011;53349;53.538;8.584;2023-03-20T13:12:40;11.95;;;4.43;;
66521;SDS011;53349;53.538;8.584;2023-03-20T13:15:51;10.02;;;3.40;;
66521;SDS011;53349;53.538;8.584;2023-03-20T13:18:43;11.60;;;4.10;;
66521;SDS011;53349;53.538;8.584;2023-03-20T13:21:23;10.63;;;4.30;;
66521;SDS011;53349;53.538;8.584;2023-03-20T13:24:18;12.20;;;4.25;;
66521;SDS011;53349;53.538;8.584;2023-03-20T13:32:22;12.27;;;4.70;;
66521;SDS011;53349;53.538;8.584;2023-03-20T13:34:59;9.07;;;4.10;;
66521;SDS011;53349;53.538;8.584;2023-03-20T13:37:42;10.57;;;4.03;;
66521;SDS011;53349;53.538;8.584;2023-03-20T13:40:22;10.27;;;4.00;;
66521;SDS011;53349;53.538;8.584;2023-03-20T13:43:18;9.60;;;4.05;;
66521;SDS011;53349;53.538;8.584;2023-03-20T13:46:04;10.38;;;4.45;;
66521;SDS011;53349;53.538;8.584;2023-03-20T13:48:35;12.98;;;4.70;;
66521;SDS011;53349;53.538;8.584;2023-03-20T13:59:39;9.90;;;4.13;;
66521;SDS011;53349;53.538;8.584;2023-03-20T14:02:22;11.77;;;4.72;;
66521;SDS011;53349;53.538;8.584;2023-03-20T14:05:10;10.90;;;4.97;;
66521;SDS011;53349;53.538;8.584;2023-03-20T14:07:41;12.70;;;5.55;;
66521;SDS011;53349;53.538;8.584;2023-03-20T14:15:15;12.93;;;6.05;;
66521;SDS011;53349;53.538;8.584;2023-03-20T14:17:43;12.52;;;5.40;;
66521;SDS011;53349;53.538;8.584;2023-03-20T14:20:19;12.23;;;6.13;;
66521;SDS011;53349;53.538;8.584;2023-03-20T14:22:52;14.38;;;6.57;;
66521;SDS011;53349;53.538;8.584;2023-03-20T14:25:19;12.98;;;7.00;;
66521;SDS011;53349;53.538;8.584;2023-03-20T14:27:55;15.38;;;6.95;;
66521;SDS011;53349;53.538;8.584;2023-03-20T14:30:35;15.82;;;6.75;;
66521;SDS011;53349;53.538;8.584;2023-03-20T14:38:38;18.13;;;7.50;;
66521;SDS011;53349;53.538;8.584;2023-03-20T14:44:04;13.52;;;6.97;;
66521;SDS011;53349;53.538;8.584;2023-03-20T14:57:43;17.90;;;7.93;;
66521;SDS011;53349;53.538;8.584;2023-03-20T15:00:20;17.48;;;8.02;;
66521;SDS011;53349;53.538;8.584;2023-03-20T15:03:10;15.55;;;7.60;;
66521;SDS011;53349;53.538;8.584;2023-03-20T15:05:43;13.60;;;6.72;;
66521;SDS011;53349;53.538;8.584;2023-03-20T15:08:10;12.55;;;6.18;;
66521;SDS011;53349;53.538;8.584;2023-03-20T15:10:46;11.27;;;5.95;;
66521;SDS011;53349;53.538;8.584;2023-03-20T15:13:17;11.25;;;5.80;;
66521;SDS011;53349;53.538;8.584;2023-03-20T15:15:53;10.53;;;5.77;;
66521;SDS011;53349;53.538;8.584;2023-03-20T15:18:20;11.48;;;6.32;;
66521;SDS011;53349;53.538;8.584;2023-03-20T15:20:48;11.82;;;5.95;;
66521;SDS011;53349;53.538;8.584;2023-03-20T15:23:14;13.17;;;6.10;;
66521;SDS011;53349;53.538;8.584;2023-03-20T15:25:40;14.17;;;6.70;;
66521;SDS011;53349;53.538;8.584;2023-03-20T15:28:10;11.77;;;6.30;;
66521;SDS011;53349;53.538;8.584;2023-03-20T15:30:39;12.60;;;6.15;;
66521;SDS011;53349;53.538;8.584;2023-03-20T15:33:05;13.35;;;6.55;;
66521;SDS011;53349;53.538;8.584;2023-03-20T15:35:32;12.10;;;6.93;;
66521;SDS011;53349;53.538;8.584;2023-03-20T15:38:03;11.65;;;6.90;;
66521;SDS011;53349;53.538;8.584;2023-03-20T15:40:31;13.77;;;7.63;;
66521;SDS011;53349;53.538;8.584;2023-03-20T15:45:42;14.60;;;7.82;;
66521;SDS011;53349;53.538;8.584;2023-03-20T15:48:11;16.27;;;7.80;;
66521;SDS011;53349;53.538;8.584;2023-03-20T15:50:40;16.08;;;7.93;;
66521;SDS011;53349;53.538;8.584;2023-03-20T15:53:10;14.13;;;7.53;;
66521;SDS011;53349;53.538;8.584;2023-03-20T15:55:40;14.93;;;7.60;;
66521;SDS011;53349;53.538;8.584;2023-03-20T15:58:06;14.37;;;7.37;;
66521;SDS011;53349;53.538;8.584;2023-03-20T16:00:33;14.15;;;7.28;;
66521;SDS011;53349;53.538;8.584;2023-03-20T16:03:03;13.40;;;7.00;;
66521;SDS011;53349;53.538;8.584;2023-03-20T16:05:31;14.73;;;7.65;;
66521;SDS011;53349;53.538;8.584;2023-03-20T16:08:21;14.93;;;7.63;;
66521;SDS011;53349;53.538;8.584;2023-03-20T16:10:48;15.98;;;7.22;;
66521;SDS011;53349;53.538;8.584;2023-03-20T16:13:18;13.23;;;7.68;;
66521;SDS011;53349;53.538;8.584;2023-03-20T16:15:44;12.37;;;7.33;;
66521;SDS011;53349;53.538;8.584;2023-03-20T16:18:13;11.75;;;7.20;;
66521;SDS011;53349;53.538;8.584;2023-03-20T16:20:51;12.68;;;6.72;;
66521;SDS011;53349;53.538;8.584;2023-03-20T16:23:29;13.48;;;7.03;;
66521;SDS011;53349;53.538;8.584;2023-03-20T16:26:09;12.00;;;6.50;;
66521;SDS011;53349;53.538;8.584;2023-03-20T16:28:40;12.93;;;6.45;;
66521;SDS011;53349;53.538;8.584;2023-03-20T16:31:06;14.17;;;7.00;;
66521;SDS011;53349;53.538;8.584;2023-03-20T16:33:34;11.13;;;7.15;;
66521;SDS011;53349;53.538;8.584;2023-03-20T16:36:02;12.63;;;7.43;;
66521;SDS011;53349;53.538;8.584;2023-03-20T16:38:30;14.65;;;7.00;;
66521;SDS011;53349;53.538;8.584;2023-03-20T16:44:12;14.67;;;7.30;;
66521;SDS011;53349;53.538;8.584;2023-03-20T16:52:14;14.98;;;7.45;;
66521;SDS011;53349;53.538;8.584;2023-03-20T16:54:40;15.38;;;7.63;;
66521;SDS011;53349;53.538;8.584;2023-03-20T16:57:13;15.50;;;7.90;;
66521;SDS011;53349;53.538;8.584;2023-03-20T16:59:40;14.20;;;7.63;;
66521;SDS011;53349;53.538;8.584;2023-03-20T17:02:11;16.15;;;8.60;;
66521;SDS011;53349;53.538;8.584;2023-03-20T17:05:05;14.90;;;8.00;;
66521;SDS011;53349;53.538;8.584;2023-03-20T17:07:36;15.65;;;9.15;;
66521;SDS011;53349;53.538;8.584;2023-03-20T17:13:00;15.45;;;8.60;;
66521;SDS011;53349;53.538;8.584;2023-03-20T17:15:26;14.63;;;8.20;;
66521;SDS011;53349;53.538;8.584;2023-03-20T17:17:51;15.10;;;8.98;;